aviador You're here:

KCEW Decoded Metar

CRESTVIEW in FL, USA
Report Time2017-11-25 02:53:00
UTC Time2017-11-25 03:34:06
Flight Rules vfr VFR
WindCalm
Visibility9999 m
Phenomena:N/A
Clouds:N/A
Expected CloudBase > 400 ft AGL from Temp-Dew spread
CeilingNone
Temp08°C (ISA -7)
Dew Point07°C (93% RH)
AAT7.3°C
QNH1016 hPa
Density Alt-584 ft
Elevation180 ft
Report Wrong Elevation
Raw Report
METAR KCEW 250253Z AUTO 00000KT 9SM CLR 08/07 A2999 RMK AO2 SLP155
T00780067 53005=

Extra information for KCEW:More info

Metar Taf Metar & Taf Last 4 Metars F.Rules Stats Wind Profile Meteogram Temp Stats Airport Information Weather charts Add Link Nearby VenuesMetar ALERT Operation Metar Decoded Social comments

AIRNAV info for KCEW